sensor_id;sensor_type;location;lat;lon;timestamp;P1;durP1;ratioP1;P2;durP2;ratioP2
3696;SDS011;60662;48.810;8.872;2024-03-02T06:57:55;26.83;;;11.80;;
3696;SDS011;60662;48.810;8.872;2024-03-02T06:58:57;21.90;;;12.00;;
3696;SDS011;60662;48.810;8.872;2024-03-02T07:03:35;22.15;;;11.45;;
3696;SDS011;60662;48.810;8.872;2024-03-02T07:12:11;25.17;;;12.52;;
3696;SDS011;60662;48.810;8.872;2024-03-02T07:19:05;25.88;;;12.35;;
3696;SDS011;60662;48.810;8.872;2024-03-02T07:24:59;23.13;;;11.57;;
3696;SDS011;60662;48.810;8.872;2024-03-02T07:29:59;21.50;;;11.32;;
3696;SDS011;60662;48.810;8.872;2024-03-02T07:37:17;25.20;;;12.55;;
3696;SDS011;60662;48.810;8.872;2024-03-02T07:40:47;25.90;;;12.70;;
3696;SDS011;60662;48.810;8.872;2024-03-02T07:44:34;27.98;;;11.68;;
3696;SDS011;60662;48.810;8.872;2024-03-02T07:45:35;25.33;;;12.45;;
3696;SDS011;60662;48.810;8.872;2024-03-02T07:49:03;20.63;;;11.57;;
3696;SDS011;60662;48.810;8.872;2024-03-02T07:50:05;25.30;;;12.23;;
3696;SDS011;60662;48.810;8.872;2024-03-02T07:51:10;18.75;;;11.50;;
3696;SDS011;60662;48.810;8.872;2024-03-02T07:52:11;20.83;;;11.43;;
3696;SDS011;60662;48.810;8.872;2024-03-02T07:53:13;20.67;;;11.77;;
3696;SDS011;60662;48.810;8.872;2024-03-02T07:54:16;21.05;;;11.80;;
3696;SDS011;60662;48.810;8.872;2024-03-02T07:55:17;17.25;;;10.18;;
3696;SDS011;60662;48.810;8.872;2024-03-02T07:56:18;16.90;;;10.70;;
3696;SDS011;60662;48.810;8.872;2024-03-02T07:57:23;19.35;;;10.82;;
3696;SDS011;60662;48.810;8.872;2024-03-02T07:58:25;15.98;;;10.15;;
3696;SDS011;60662;48.810;8.872;2024-03-02T07:59:26;21.50;;;10.90;;
3696;SDS011;60662;48.810;8.872;2024-03-02T08:00:28;17.00;;;9.73;;
3696;SDS011;60662;48.810;8.872;2024-03-02T08:01:30;17.33;;;10.07;;
3696;SDS011;60662;48.810;8.872;2024-03-02T08:02:32;17.88;;;10.15;;
3696;SDS011;60662;48.810;8.872;2024-03-02T08:03:34;16.80;;;9.20;;
3696;SDS011;60662;48.810;8.872;2024-03-02T08:04:36;16.48;;;9.50;;
3696;SDS011;60662;48.810;8.872;2024-03-02T08:05:38;15.38;;;9.73;;
3696;SDS011;60662;48.810;8.872;2024-03-02T08:06:40;17.27;;;10.00;;
3696;SDS011;60662;48.810;8.872;2024-03-02T08:07:43;13.40;;;8.35;;
3696;SDS011;60662;48.810;8.872;2024-03-02T08:08:45;15.93;;;9.85;;
3696;SDS011;60662;48.810;8.872;2024-03-02T08:09:46;15.90;;;9.43;;
3696;SDS011;60662;48.810;8.872;2024-03-02T08:10:48;18.75;;;10.52;;
3696;SDS011;60662;48.810;8.872;2024-03-02T08:11:50;17.50;;;9.82;;
3696;SDS011;60662;48.810;8.872;2024-03-02T08:12:52;16.25;;;9.77;;
3696;SDS011;60662;48.810;8.872;2024-03-02T08:13:53;15.38;;;7.97;;
3696;SDS011;60662;48.810;8.872;2024-03-02T08:14:58;15.25;;;9.25;;
3696;SDS011;60662;48.810;8.872;2024-03-02T08:15:59;17.05;;;7.75;;
3696;SDS011;60662;48.810;8.872;2024-03-02T08:17:01;15.07;;;9.40;;
3696;SDS011;60662;48.810;8.872;2024-03-02T08:18:03;16.30;;;9.55;;
3696;SDS011;60662;48.810;8.872;2024-03-02T08:19:05;16.20;;;9.00;;
3696;SDS011;60662;48.810;8.872;2024-03-02T08:20:06;14.02;;;8.63;;
3696;SDS011;60662;48.810;8.872;2024-03-02T08:21:09;12.93;;;8.70;;
3696;SDS011;60662;48.810;8.872;2024-03-02T08:22:10;16.98;;;9.00;;
3696;SDS011;60662;48.810;8.872;2024-03-02T08:23:12;15.63;;;8.82;;
3696;SDS011;60662;48.810;8.872;2024-03-02T08:24:13;18.52;;;9.73;;
3696;SDS011;60662;48.810;8.872;2024-03-02T08:25:15;15.73;;;9.07;;
3696;SDS011;60662;48.810;8.872;2024-03-02T08:26:17;14.40;;;8.68;;
3696;SDS011;60662;48.810;8.872;2024-03-02T08:27:19;14.60;;;9.35;;
3696;SDS011;60662;48.810;8.872;2024-03-02T08:28:20;15.98;;;10.13;;
3696;SDS011;60662;48.810;8.872;2024-03-02T08:29:22;15.65;;;9.30;;
3696;SDS011;60662;48.810;8.872;2024-03-02T08:30:27;16.52;;;9.75;;
3696;SDS011;60662;48.810;8.872;2024-03-02T08:31:29;12.65;;;8.38;;
3696;SDS011;60662;48.810;8.872;2024-03-02T08:32:31;12.60;;;8.40;;
3696;SDS011;60662;48.810;8.872;2024-03-02T08:33:32;13.40;;;7.70;;
3696;SDS011;60662;48.810;8.872;2024-03-02T08:34:37;16.80;;;9.25;;
3696;SDS011;60662;48.810;8.872;2024-03-02T08:35:38;15.40;;;9.52;;
3696;SDS011;60662;48.810;8.872;2024-03-02T08:36:40;14.07;;;9.32;;
3696;SDS011;60662;48.810;8.872;2024-03-02T08:37:42;14.80;;;9.27;;
3696;SDS011;60662;48.810;8.872;2024-03-02T08:38:44;15.40;;;9.32;;
3696;SDS011;60662;48.810;8.872;2024-03-02T08:39:46;14.32;;;8.20;;
3696;SDS011;60662;48.810;8.872;2024-03-02T08:40:48;14.80;;;8.07;;
3696;SDS011;60662;48.810;8.872;2024-03-02T08:41:50;13.35;;;9.25;;
3696;SDS011;60662;48.810;8.872;2024-03-02T08:42:52;16.10;;;9.02;;
3696;SDS011;60662;48.810;8.872;2024-03-02T08:43:54;17.60;;;10.20;;
3696;SDS011;60662;48.810;8.872;2024-03-02T08:44:55;11.70;;;8.20;;
3696;SDS011;60662;48.810;8.872;2024-03-02T08:45:57;16.48;;;8.63;;
3696;SDS011;60662;48.810;8.872;2024-03-02T08:46:59;13.23;;;9.32;;
3696;SDS011;60662;48.810;8.872;2024-03-02T08:48:01;14.73;;;9.05;;
3696;SDS011;60662;48.810;8.872;2024-03-02T08:49:02;13.80;;;8.65;;
3696;SDS011;60662;48.810;8.872;2024-03-02T08:50:04;13.60;;;8.40;;
3696;SDS011;60662;48.810;8.872;2024-03-02T08:51:07;13.98;;;8.77;;
3696;SDS011;60662;48.810;8.872;2024-03-02T08:52:10;13.35;;;8.93;;
3696;SDS011;60662;48.810;8.872;2024-03-02T08:53:11;14.82;;;9.48;;
3696;SDS011;60662;48.810;8.872;2024-03-02T08:54:13;12.23;;;7.93;;
3696;SDS011;60662;48.810;8.872;2024-03-02T08:55:14;12.20;;;7.78;;
3696;SDS011;60662;48.810;8.872;2024-03-02T08:56:16;13.15;;;8.18;;
3696;SDS011;60662;48.810;8.872;2024-03-02T08:57:17;13.43;;;9.32;;
3696;SDS011;60662;48.810;8.872;2024-03-02T08:58:19;15.02;;;9.07;;
3696;SDS011;60662;48.810;8.872;2024-03-02T08:59:21;14.77;;;8.88;;
3696;SDS011;60662;48.810;8.872;2024-03-02T09:00:23;12.65;;;8.50;;
3696;SDS011;60662;48.810;8.872;2024-03-02T09:01:25;12.95;;;8.55;;
3696;SDS011;60662;48.810;8.872;2024-03-02T09:02:26;12.55;;;8.40;;
3696;SDS011;60662;48.810;8.872;2024-03-02T09:03:28;11.55;;;7.85;;
3696;SDS011;60662;48.810;8.872;2024-03-02T09:04:30;12.68;;;8.35;;
3696;SDS011;60662;48.810;8.872;2024-03-02T09:05:35;11.05;;;7.43;;
3696;SDS011;60662;48.810;8.872;2024-03-02T09:06:37;12.68;;;7.90;;
3696;SDS011;60662;48.810;8.872;2024-03-02T09:07:39;9.85;;;6.45;;
3696;SDS011;60662;48.810;8.872;2024-03-02T09:08:40;11.48;;;7.07;;
3696;SDS011;60662;48.810;8.872;2024-03-02T09:09:42;12.98;;;7.10;;
3696;SDS011;60662;48.810;8.872;2024-03-02T09:10:44;12.00;;;7.40;;
3696;SDS011;60662;48.810;8.872;2024-03-02T09:11:46;12.27;;;7.60;;
3696;SDS011;60662;48.810;8.872;2024-03-02T09:12:48;16.77;;;8.40;;
3696;SDS011;60662;48.810;8.872;2024-03-02T09:13:49;13.00;;;8.60;;
3696;SDS011;60662;48.810;8.872;2024-03-02T09:14:51;11.35;;;7.63;;
3696;SDS011;60662;48.810;8.872;2024-03-02T09:15:52;13.70;;;7.57;;
3696;SDS011;60662;48.810;8.872;2024-03-02T09:16:54;15.70;;;9.23;;
3696;SDS011;60662;48.810;8.872;2024-03-02T09:17:56;12.98;;;6.93;;
3696;SDS011;60662;48.810;8.872;2024-03-02T09:18:57;13.13;;;8.23;;
3696;SDS011;60662;48.810;8.872;2024-03-02T09:19:59;12.75;;;7.45;;
3696;SDS011;60662;48.810;8.872;2024-03-02T09:21:01;13.10;;;7.25;;
3696;SDS011;60662;48.810;8.872;2024-03-02T09:22:02;11.52;;;6.70;;
3696;SDS011;60662;48.810;8.872;2024-03-02T09:23:07;11.02;;;7.15;;
3696;SDS011;60662;48.810;8.872;2024-03-02T09:24:08;12.57;;;7.07;;
3696;SDS011;60662;48.810;8.872;2024-03-02T09:25:11;10.70;;;6.75;;
3696;SDS011;60662;48.810;8.872;2024-03-02T09:26:12;13.30;;;6.75;;
3696;SDS011;60662;48.810;8.872;2024-03-02T09:27:15;10.15;;;6.65;;
3696;SDS011;60662;48.810;8.872;2024-03-02T09:28:16;8.05;;;5.20;;
3696;SDS011;60662;48.810;8.872;2024-03-02T09:29:18;12.93;;;6.55;;
3696;SDS011;60662;48.810;8.872;2024-03-02T09:30:22;11.45;;;7.47;;
3696;SDS011;60662;48.810;8.872;2024-03-02T09:31:24;11.05;;;6.68;;
3696;SDS011;60662;48.810;8.872;2024-03-02T09:32:25;12.43;;;7.40;;
3696;SDS011;60662;48.810;8.872;2024-03-02T09:33:27;13.00;;;7.30;;
3696;SDS011;60662;48.810;8.872;2024-03-02T09:34:28;11.70;;;7.45;;
3696;SDS011;60662;48.810;8.872;2024-03-02T09:35:30;9.60;;;6.95;;
3696;SDS011;60662;48.810;8.872;2024-03-02T09:36:31;8.52;;;6.03;;
3696;SDS011;60662;48.810;8.872;2024-03-02T09:37:33;8.75;;;6.22;;
3696;SDS011;60662;48.810;8.872;2024-03-02T09:38:35;10.75;;;6.88;;
3696;SDS011;60662;48.810;8.872;2024-03-02T09:39:36;10.60;;;6.85;;
3696;SDS011;60662;48.810;8.872;2024-03-02T09:40:37;13.13;;;7.05;;
3696;SDS011;60662;48.810;8.872;2024-03-02T09:41:39;9.30;;;5.95;;
3696;SDS011;60662;48.810;8.872;2024-03-02T09:42:41;11.60;;;6.70;;
3696;SDS011;60662;48.810;8.872;2024-03-02T09:43:43;10.90;;;6.40;;
3696;SDS011;60662;48.810;8.872;2024-03-02T09:44:45;10.80;;;6.85;;
3696;SDS011;60662;48.810;8.872;2024-03-02T09:45:49;12.10;;;6.75;;
3696;SDS011;60662;48.810;8.872;2024-03-02T09:46:52;8.10;;;5.82;;
3696;SDS011;60662;48.810;8.872;2024-03-02T09:47:54;11.60;;;5.97;;
3696;SDS011;60662;48.810;8.872;2024-03-02T09:48:59;8.32;;;5.93;;
3696;SDS011;60662;48.810;8.872;2024-03-02T09:50:05;9.75;;;6.18;;
3696;SDS011;60662;48.810;8.872;2024-03-02T09:51:10;11.45;;;5.60;;
3696;SDS011;60662;48.810;8.872;2024-03-02T09:52:13;9.73;;;5.85;;
3696;SDS011;60662;48.810;8.872;2024-03-02T09:53:16;11.45;;;6.05;;
3696;SDS011;60662;48.810;8.872;2024-03-02T09:54:29;9.52;;;6.18;;
3696;SDS011;60662;48.810;8.872;2024-03-02T09:55:31;7.55;;;5.10;;
3696;SDS011;60662;48.810;8.872;2024-03-02T09:56:33;7.72;;;5.47;;
3696;SDS011;60662;48.810;8.872;2024-03-02T09:57:38;10.02;;;6.10;;
3696;SDS011;60662;48.810;8.872;2024-03-02T09:58:48;9.75;;;5.07;;
3696;SDS011;60662;48.810;8.872;2024-03-02T09:59:50;6.95;;;4.53;;
3696;SDS011;60662;48.810;8.872;2024-03-02T10:00:52;6.90;;;5.00;;
3696;SDS011;60662;48.810;8.872;2024-03-02T10:01:58;8.45;;;4.72;;
3696;SDS011;60662;48.810;8.872;2024-03-02T10:03:04;7.50;;;4.55;;
3696;SDS011;60662;48.810;8.872;2024-03-02T10:04:07;9.68;;;4.50;;
3696;SDS011;60662;48.810;8.872;2024-03-02T10:05:10;7.88;;;4.60;;
3696;SDS011;60662;48.810;8.872;2024-03-02T10:07:25;9.55;;;5.22;;
3696;SDS011;60662;48.810;8.872;2024-03-02T10:08:26;7.00;;;4.25;;
3696;SDS011;60662;48.810;8.872;2024-03-02T10:09:44;8.00;;;4.63;;
3696;SDS011;60662;48.810;8.872;2024-03-02T10:10:47;7.88;;;5.05;;
3696;SDS011;60662;48.810;8.872;2024-03-02T10:11:49;5.80;;;4.38;;
3696;SDS011;60662;48.810;8.872;2024-03-02T10:12:57;6.68;;;4.30;;
3696;SDS011;60662;48.810;8.872;2024-03-02T10:14:10;9.50;;;4.88;;
3696;SDS011;60662;48.810;8.872;2024-03-02T10:15:14;6.75;;;3.95;;
3696;SDS011;60662;48.810;8.872;2024-03-02T10:16:25;7.40;;;4.30;;
3696;SDS011;60662;48.810;8.872;2024-03-02T10:17:26;6.57;;;4.00;;
3696;SDS011;60662;48.810;8.872;2024-03-02T10:18:32;8.23;;;4.30;;
3696;SDS011;60662;48.810;8.872;2024-03-02T10:19:37;9.30;;;4.63;;
3696;SDS011;60662;48.810;8.872;2024-03-02T10:20:40;10.45;;;4.68;;
3696;SDS011;60662;48.810;8.872;2024-03-02T10:21:42;8.35;;;4.05;;
3696;SDS011;60662;48.810;8.872;2024-03-02T10:22:44;6.63;;;3.72;;
3696;SDS011;60662;48.810;8.872;2024-03-02T10:23:45;10.57;;;4.10;;
3696;SDS011;60662;48.810;8.872;2024-03-02T10:24:47;9.10;;;3.47;;
3696;SDS011;60662;48.810;8.872;2024-03-02T10:25:55;8.20;;;4.15;;
3696;SDS011;60662;48.810;8.872;2024-03-02T10:26:58;8.50;;;4.60;;
3696;SDS011;60662;48.810;8.872;2024-03-02T10:28:00;9.38;;;4.20;;
3696;SDS011;60662;48.810;8.872;2024-03-02T10:29:02;6.70;;;4.07;;
3696;SDS011;60662;48.810;8.872;2024-03-02T10:30:04;8.27;;;4.38;;
3696;SDS011;60662;48.810;8.872;2024-03-02T10:31:07;8.63;;;4.85;;
3696;SDS011;60662;48.810;8.872;2024-03-02T10:32:11;7.82;;;4.32;;
3696;SDS011;60662;48.810;8.872;2024-03-02T10:33:13;8.00;;;4.70;;
3696;SDS011;60662;48.810;8.872;2024-03-02T10:34:15;6.13;;;3.50;;
3696;SDS011;60662;48.810;8.872;2024-03-02T10:35:20;5.22;;;3.70;;
3696;SDS011;60662;48.810;8.872;2024-03-02T10:36:23;6.93;;;3.88;;
3696;SDS011;60662;48.810;8.872;2024-03-02T10:37:27;5.70;;;3.53;;
3696;SDS011;60662;48.810;8.872;2024-03-02T10:38:28;4.97;;;3.13;;
3696;SDS011;60662;48.810;8.872;2024-03-02T10:39:31;8.13;;;3.53;;
3696;SDS011;60662;48.810;8.872;2024-03-02T10:40:33;5.65;;;3.42;;
3696;SDS011;60662;48.810;8.872;2024-03-02T10:41:36;4.18;;;2.80;;
3696;SDS011;60662;48.810;8.872;2024-03-02T10:42:38;7.68;;;2.97;;
3696;SDS011;60662;48.810;8.872;2024-03-02T10:43:40;7.53;;;3.83;;
3696;SDS011;60662;48.810;8.872;2024-03-02T10:44:42;4.88;;;2.60;;
3696;SDS011;60662;48.810;8.872;2024-03-02T10:45:45;7.30;;;2.17;;
3696;SDS011;60662;48.810;8.872;2024-03-02T10:46:50;5.13;;;2.55;;
3696;SDS011;60662;48.810;8.872;2024-03-02T10:47:54;4.20;;;2.17;;
3696;SDS011;60662;48.810;8.872;2024-03-02T10:48:56;4.80;;;2.15;;
3696;SDS011;60662;48.810;8.872;2024-03-02T10:50:06;3.55;;;1.70;;
3696;SDS011;60662;48.810;8.872;2024-03-02T10:51:09;4.13;;;2.03;;
3696;SDS011;60662;48.810;8.872;2024-03-02T10:52:11;3.20;;;1.70;;
3696;SDS011;60662;48.810;8.872;2024-03-02T10:53:12;3.88;;;1.55;;
3696;SDS011;60662;48.810;8.872;2024-03-02T10:54:14;2.78;;;1.40;;
3696;SDS011;60662;48.810;8.872;2024-03-02T10:55:18;3.15;;;1.55;;
3696;SDS011;60662;48.810;8.872;2024-03-02T10:56:28;3.10;;;1.55;;
3696;SDS011;60662;48.810;8.872;2024-03-02T10:57:30;4.90;;;1.73;;
3696;SDS011;60662;48.810;8.872;2024-03-02T10:58:38;3.03;;;1.60;;
3696;SDS011;60662;48.810;8.872;2024-03-02T10:59:44;3.55;;;1.40;;
3696;SDS011;60662;48.810;8.872;2024-03-02T11:00:58;2.80;;;1.20;;
3696;SDS011;60662;48.810;8.872;2024-03-02T11:02:05;3.05;;;1.55;;
3696;SDS011;60662;48.810;8.872;2024-03-02T11:03:09;2.00;;;1.20;;
3696;SDS011;60662;48.810;8.872;2024-03-02T11:04:12;3.00;;;1.15;;
3696;SDS011;60662;48.810;8.872;2024-03-02T11:05:26;2.80;;;1.40;;
3696;SDS011;60662;48.810;8.872;2024-03-02T11:06:29;2.70;;;1.25;;
3696;SDS011;60662;48.810;8.872;2024-03-02T11:07:34;6.72;;;1.20;;
3696;SDS011;60662;48.810;8.872;2024-03-02T11:08:38;2.72;;;1.30;;
3696;SDS011;60662;48.810;8.872;2024-03-02T11:09:45;2.40;;;1.40;;
3696;SDS011;60662;48.810;8.872;2024-03-02T11:10:56;2.60;;;1.38;;
3696;SDS011;60662;48.810;8.872;2024-03-02T11:13:11;3.03;;;1.02;;
3696;SDS011;60662;48.810;8.872;2024-03-02T11:14:13;2.53;;;1.25;;
3696;SDS011;60662;48.810;8.872;2024-03-02T11:15:18;2.88;;;1.25;;
3696;SDS011;60662;48.810;8.872;2024-03-02T11:17:33;3.28;;;1.50;;
3696;SDS011;60662;48.810;8.872;2024-03-02T11:18:35;3.97;;;1.10;;
3696;SDS011;60662;48.810;8.872;2024-03-02T11:19:38;2.30;;;1.20;;
3696;SDS011;60662;48.810;8.872;2024-03-02T11:20:42;5.75;;;1.48;;
3696;SDS011;60662;48.810;8.872;2024-03-02T11:21:44;1.88;;;1.00;;
3696;SDS011;60662;48.810;8.872;2024-03-02T11:22:47;4.30;;;1.10;;
3696;SDS011;60662;48.810;8.872;2024-03-02T11:23:49;2.08;;;1.10;;
3696;SDS011;60662;48.810;8.872;2024-03-02T11:24:51;1.80;;;1.00;;
3696;SDS011;60662;48.810;8.872;2024-03-02T11:25:54;2.33;;;1.10;;
3696;SDS011;60662;48.810;8.872;2024-03-02T11:26:55;2.33;;;1.30;;
3696;SDS011;60662;48.810;8.872;2024-03-02T11:27:59;3.38;;;1.20;;
3696;SDS011;60662;48.810;8.872;2024-03-02T11:29:03;1.83;;;1.05;;
3696;SDS011;60662;48.810;8.872;2024-03-02T11:30:05;2.42;;;1.20;;
3696;SDS011;60662;48.810;8.872;2024-03-02T11:31:09;1.98;;;0.98;;
3696;SDS011;60662;48.810;8.872;2024-03-02T11:32:17;2.20;;;1.00;;
3696;SDS011;60662;48.810;8.872;2024-03-02T11:33:22;2.47;;;0.88;;
3696;SDS011;60662;48.810;8.872;2024-03-02T11:34:44;2.05;;;1.20;;
3696;SDS011;60662;48.810;8.872;2024-03-02T11:35:47;2.05;;;1.02;;
3696;SDS011;60662;48.810;8.872;2024-03-02T11:36:50;3.38;;;1.10;;
3696;SDS011;60662;48.810;8.872;2024-03-02T11:37:52;1.75;;;0.98;;
3696;SDS011;60662;48.810;8.872;2024-03-02T11:38:54;2.72;;;1.25;;
3696;SDS011;60662;48.810;8.872;2024-03-02T11:39:56;2.25;;;1.00;;
3696;SDS011;60662;48.810;8.872;2024-03-02T11:40:59;1.85;;;1.05;;
3696;SDS011;60662;48.810;8.872;2024-03-02T11:42:02;3.58;;;1.10;;
3696;SDS011;60662;48.810;8.872;2024-03-02T11:43:04;3.42;;;1.20;;
3696;SDS011;60662;48.810;8.872;2024-03-02T11:44:07;2.85;;;1.30;;
3696;SDS011;60662;48.810;8.872;2024-03-02T11:45:15;2.88;;;1.25;;
3696;SDS011;60662;48.810;8.872;2024-03-02T11:46:18;2.20;;;0.93;;
3696;SDS011;60662;48.810;8.872;2024-03-02T11:47:23;4.55;;;1.15;;
3696;SDS011;60662;48.810;8.872;2024-03-02T11:48:25;2.80;;;1.20;;
3696;SDS011;60662;48.810;8.872;2024-03-02T11:49:36;2.78;;;1.20;;
3696;SDS011;60662;48.810;8.872;2024-03-02T11:50:41;1.55;;;0.85;;
3696;SDS011;60662;48.810;8.872;2024-03-02T11:52:00;3.60;;;1.40;;
3696;SDS011;60662;48.810;8.872;2024-03-02T11:53:05;3.55;;;1.27;;
3696;SDS011;60662;48.810;8.872;2024-03-02T11:54:10;2.78;;;1.20;;
3696;SDS011;60662;48.810;8.872;2024-03-02T11:55:12;2.05;;;1.23;;
3696;SDS011;60662;48.810;8.872;2024-03-02T11:56:14;3.20;;;1.50;;
3696;SDS011;60662;48.810;8.872;2024-03-02T11:57:17;4.32;;;1.20;;
3696;SDS011;60662;48.810;8.872;2024-03-02T11:58:21;3.88;;;1.30;;
3696;SDS011;60662;48.810;8.872;2024-03-02T11:59:25;2.08;;;0.90;;
3696;SDS011;60662;48.810;8.872;2024-03-02T12:00:27;3.53;;;0.95;;
3696;SDS011;60662;48.810;8.872;2024-03-02T12:01:29;1.88;;;1.00;;
3696;SDS011;60662;48.810;8.872;2024-03-02T12:02:31;4.05;;;1.10;;
3696;SDS011;60662;48.810;8.872;2024-03-02T12:03:32;1.88;;;1.05;;
3696;SDS011;60662;48.810;8.872;2024-03-02T12:04:41;1.90;;;1.00;;
3696;SDS011;60662;48.810;8.872;2024-03-02T12:05:43;1.65;;;0.85;;
3696;SDS011;60662;48.810;8.872;2024-03-02T12:07:04;1.35;;;0.80;;
3696;SDS011;60662;48.810;8.872;2024-03-02T12:08:06;1.50;;;0.82;;
3696;SDS011;60662;48.810;8.872;2024-03-02T12:09:09;5.22;;;1.02;;
3696;SDS011;60662;48.810;8.872;2024-03-02T12:10:13;6.63;;;1.58;;
3696;SDS011;60662;48.810;8.872;2024-03-02T12:11:16;3.15;;;1.25;;
3696;SDS011;60662;48.810;8.872;2024-03-02T12:12:18;1.92;;;1.02;;
3696;SDS011;60662;48.810;8.872;2024-03-02T12:13:23;1.98;;;0.90;;
3696;SDS011;60662;48.810;8.872;2024-03-02T12:14:25;1.95;;;0.77;;
3696;SDS011;60662;48.810;8.872;2024-03-02T12:15:31;2.05;;;0.70;;
3696;SDS011;60662;48.810;8.872;2024-03-02T12:16:34;1.67;;;0.90;;
3696;SDS011;60662;48.810;8.872;2024-03-02T12:17:38;1.58;;;0.80;;
3696;SDS011;60662;48.810;8.872;2024-03-02T12:18:41;2.58;;;0.75;;
3696;SDS011;60662;48.810;8.872;2024-03-02T12:19:45;1.52;;;0.70;;
3696;SDS011;60662;48.810;8.872;2024-03-02T12:20:48;1.20;;;0.80;;
3696;SDS011;60662;48.810;8.872;2024-03-02T12:21:51;3.63;;;0.90;;
3696;SDS011;60662;48.810;8.872;2024-03-02T12:22:53;1.80;;;0.90;;
3696;SDS011;60662;48.810;8.872;2024-03-02T12:23:55;1.92;;;0.93;;
3696;SDS011;60662;48.810;8.872;2024-03-02T12:24:57;1.90;;;0.90;;
3696;SDS011;60662;48.810;8.872;2024-03-02T12:25:58;1.60;;;0.90;;
3696;SDS011;60662;48.810;8.872;2024-03-02T12:27:00;2.55;;;0.80;;
3696;SDS011;60662;48.810;8.872;2024-03-02T12:28:02;3.75;;;1.10;;
3696;SDS011;60662;48.810;8.872;2024-03-02T12:29:04;2.63;;;0.95;;
3696;SDS011;60662;48.810;8.872;2024-03-02T12:30:06;1.55;;;0.80;;
3696;SDS011;60662;48.810;8.872;2024-03-02T12:31:11;2.50;;;0.80;;
3696;SDS011;60662;48.810;8.872;2024-03-02T12:32:13;2.67;;;0.90;;
3696;SDS011;60662;48.810;8.872;2024-03-02T12:33:16;1.42;;;0.70;;
3696;SDS011;60662;48.810;8.872;2024-03-02T12:34:17;2.00;;;0.80;;
3696;SDS011;60662;48.810;8.872;2024-03-02T12:35:20;1.83;;;1.02;;
3696;SDS011;60662;48.810;8.872;2024-03-02T12:36:22;1.42;;;0.65;;
3696;SDS011;60662;48.810;8.872;2024-03-02T12:37:23;1.90;;;0.80;;
3696;SDS011;60662;48.810;8.872;2024-03-02T12:38:25;2.33;;;0.88;;
3696;SDS011;60662;48.810;8.872;2024-03-02T12:39:27;1.60;;;0.90;;
3696;SDS011;60662;48.810;8.872;2024-03-02T12:40:30;1.77;;;1.17;;
3696;SDS011;60662;48.810;8.872;2024-03-02T12:41:31;2.05;;;0.98;;
3696;SDS011;60662;48.810;8.872;2024-03-02T12:42:33;1.50;;;0.80;;
3696;SDS011;60662;48.810;8.872;2024-03-02T12:43:34;2.05;;;1.00;;
3696;SDS011;60662;48.810;8.872;2024-03-02T12:44:36;1.65;;;0.80;;
3696;SDS011;60662;48.810;8.872;2024-03-02T12:45:37;6.45;;;0.90;;
3696;SDS011;60662;48.810;8.872;2024-03-02T12:46:39;2.03;;;0.88;;
3696;SDS011;60662;48.810;8.872;2024-03-02T12:47:41;3.33;;;0.90;;
3696;SDS011;60662;48.810;8.872;2024-03-02T12:48:44;5.32;;;0.80;;
3696;SDS011;60662;48.810;8.872;2024-03-02T12:49:45;1.30;;;0.70;;
3696;SDS011;60662;48.810;8.872;2024-03-02T12:50:47;1.40;;;0.80;;
3696;SDS011;60662;48.810;8.872;2024-03-02T12:51:48;1.60;;;0.88;;
3696;SDS011;60662;48.810;8.872;2024-03-02T12:52:55;1.65;;;0.82;;
3696;SDS011;60662;48.810;8.872;2024-03-02T12:53:57;2.03;;;1.20;;
3696;SDS011;60662;48.810;8.872;2024-03-02T12:54:59;1.45;;;0.70;;
3696;SDS011;60662;48.810;8.872;2024-03-02T12:56:02;1.30;;;0.70;;
3696;SDS011;60662;48.810;8.872;2024-03-02T12:57:05;1.30;;;0.70;;
3696;SDS011;60662;48.810;8.872;2024-03-02T12:58:07;4.43;;;0.80;;
3696;SDS011;60662;48.810;8.872;2024-03-02T12:59:08;4.25;;;1.02;;
3696;SDS011;60662;48.810;8.872;2024-03-02T13:00:12;2.05;;;0.88;;
3696;SDS011;60662;48.810;8.872;2024-03-02T13:01:14;2.15;;;0.82;;
3696;SDS011;60662;48.810;8.872;2024-03-02T13:02:19;3.85;;;0.88;;
3696;SDS011;60662;48.810;8.872;2024-03-02T13:03:21;5.25;;;1.33;;
3696;SDS011;60662;48.810;8.872;2024-03-02T13:04:24;8.00;;;0.70;;
3696;SDS011;60662;48.810;8.872;2024-03-02T13:05:29;3.22;;;1.00;;
3696;SDS011;60662;48.810;8.872;2024-03-02T13:06:32;5.43;;;1.27;;
3696;SDS011;60662;48.810;8.872;2024-03-02T13:07:35;1.67;;;0.80;;
3696;SDS011;60662;48.810;8.872;2024-03-02T13:08:36;2.13;;;0.90;;
3696;SDS011;60662;48.810;8.872;2024-03-02T13:09:39;2.08;;;0.80;;
3696;SDS011;60662;48.810;8.872;2024-03-02T13:10:41;1.35;;;0.75;;
3696;SDS011;60662;48.810;8.872;2024-03-02T13:11:42;2.47;;;1.13;;
3696;SDS011;60662;48.810;8.872;2024-03-02T13:12:44;3.13;;;1.30;;
3696;SDS011;60662;48.810;8.872;2024-03-02T13:13:46;1.63;;;0.93;;
3696;SDS011;60662;48.810;8.872;2024-03-02T13:14:49;1.83;;;0.90;;
3696;SDS011;60662;48.810;8.872;2024-03-02T13:15:55;3.63;;;0.90;;
3696;SDS011;60662;48.810;8.872;2024-03-02T13:16:57;2.80;;;1.00;;
3696;SDS011;60662;48.810;8.872;2024-03-02T13:17:59;6.22;;;1.00;;
3696;SDS011;60662;48.810;8.872;2024-03-02T13:19:05;2.20;;;0.98;;
3696;SDS011;60662;48.810;8.872;2024-03-02T13:20:09;4.22;;;0.85;;
3696;SDS011;60662;48.810;8.872;2024-03-02T13:21:12;1.80;;;0.80;;
3696;SDS011;60662;48.810;8.872;2024-03-02T13:22:13;2.00;;;0.77;;
3696;SDS011;60662;48.810;8.872;2024-03-02T13:23:15;1.20;;;0.63;;
3696;SDS011;60662;48.810;8.872;2024-03-02T13:24:16;1.95;;;0.80;;
3696;SDS011;60662;48.810;8.872;2024-03-02T13:25:17;1.60;;;0.80;;
3696;SDS011;60662;48.810;8.872;2024-03-02T13:26:19;1.63;;;0.80;;
3696;SDS011;60662;48.810;8.872;2024-03-02T13:27:20;1.70;;;0.80;;
3696;SDS011;60662;48.810;8.872;2024-03-02T13:28:22;3.95;;;0.90;;
3696;SDS011;60662;48.810;8.872;2024-03-02T13:29:24;2.05;;;0.85;;
3696;SDS011;60662;48.810;8.872;2024-03-02T13:30:25;2.10;;;0.80;;
3696;SDS011;60662;48.810;8.872;2024-03-02T13:31:27;2.50;;;0.80;;
3696;SDS011;60662;48.810;8.872;2024-03-02T13:32:28;3.75;;;1.15;;
3696;SDS011;60662;48.810;8.872;2024-03-02T13:33:30;2.28;;;0.80;;
3696;SDS011;60662;48.810;8.872;2024-03-02T13:34:32;2.17;;;1.05;;
3696;SDS011;60662;48.810;8.872;2024-03-02T13:35:33;2.45;;;1.00;;
3696;SDS011;60662;48.810;8.872;2024-03-02T13:36:35;1.80;;;1.00;;
3696;SDS011;60662;48.810;8.872;2024-03-02T13:37:36;1.48;;;0.90;;
3696;SDS011;60662;48.810;8.872;2024-03-02T13:38:40;1.40;;;0.80;;
3696;SDS011;60662;48.810;8.872;2024-03-02T13:39:42;1.33;;;0.73;;
3696;SDS011;60662;48.810;8.872;2024-03-02T13:40:44;2.83;;;1.05;;
3696;SDS011;60662;48.810;8.872;2024-03-02T13:41:45;2.58;;;1.02;;
3696;SDS011;60662;48.810;8.872;2024-03-02T13:42:53;8.55;;;1.00;;
3696;SDS011;60662;48.810;8.872;2024-03-02T13:43:55;1.48;;;0.80;;
3696;SDS011;60662;48.810;8.872;2024-03-02T13:44:57;2.25;;;1.00;;
3696;SDS011;60662;48.810;8.872;2024-03-02T13:45:58;2.00;;;1.00;;
3696;SDS011;60662;48.810;8.872;2024-03-02T13:47:00;4.20;;;1.08;;
3696;SDS011;60662;48.810;8.872;2024-03-02T13:48:02;4.93;;;0.90;;
3696;SDS011;60662;48.810;8.872;2024-03-02T13:49:04;2.65;;;0.95;;
3696;SDS011;60662;48.810;8.872;2024-03-02T13:50:06;3.20;;;1.00;;
3696;SDS011;60662;48.810;8.872;2024-03-02T13:51:08;2.67;;;1.10;;
3696;SDS011;60662;48.810;8.872;2024-03-02T13:52:10;5.53;;;1.33;;
3696;SDS011;60662;48.810;8.872;2024-03-02T13:53:12;3.25;;;1.10;;
3696;SDS011;60662;48.810;8.872;2024-03-02T13:54:13;2.42;;;0.90;;
3696;SDS011;60662;48.810;8.872;2024-03-02T13:55:21;4.80;;;1.25;;
3696;SDS011;60662;48.810;8.872;2024-03-02T13:56:23;1.95;;;1.00;;
3696;SDS011;60662;48.810;8.872;2024-03-02T13:57:25;2.45;;;1.40;;
3696;SDS011;60662;48.810;8.872;2024-03-02T13:58:27;3.20;;;1.30;;
3696;SDS011;60662;48.810;8.872;2024-03-02T13:59:29;2.60;;;1.20;;
3696;SDS011;60662;48.810;8.872;2024-03-02T14:00:31;2.33;;;1.20;;
3696;SDS011;60662;48.810;8.872;2024-03-02T14:01:33;3.47;;;1.45;;
3696;SDS011;60662;48.810;8.872;2024-03-02T14:02:35;1.70;;;1.02;;
3696;SDS011;60662;48.810;8.872;2024-03-02T14:03:37;6.90;;;3.05;;